Darstellungsparameter: Aktuell verwendete Einstellungen:
Skalierung der Graphiken ... ?
xyx+y,   Skalierungsfaktor:      Skalierung: Modus: x, Faktor: 1
Darstellungszeitraum ... ?
Vom - - bis: - -   Zeitraum: 21.02.2018 - 21.02.2018
Min/Max/Avg-Anzeige ... ?
Zeige MMA aktuell
Zeige MMA Monat
Zeige MMA alles
Zeige --A aktuell
Zeige --A Monat
Zeige --A alles
Keine MMA-Anzeige
MMA:
Keine MMA-Graphiken
MMA-Basis: 21.02.2018 - 21.02.2018
Quicknavigation für Darstellung... ?
Tage:      1T, 2T, 3T, 5T -1T -2T -3T -5T +1T +2T +3T +5T
Wochen: 1W, 2W, 3W -1W -2W -3W +1W +2W +3W
Monate: 1M, 3M, 6M -1M -3M -6M +1M +3M +6M
Jahre:    1J, 3J, 5J, 10J -1J -3J -5J -10J +1J +3J +5J +10J
Nutze für die Darstellung ... ?
Originaldaten oder Mittelwerte auf ...
Stundenbasis Tagesbasis Wochenbasis
Monatsbasis Jahresbasis      Datenbasis: Original-Daten
Darstellen als:
Statistik (Auto) Statistik J:M      Darstellung:
Zur Graphik,    zurück zur Übersicht aller Sensoren.
 
Tabellarische Datenbersicht: ?
 
Sensor: Nr:Datum:Temp:Feuchte:Taupunkt:
Aussen-T/F 1 21-02-2018 00:00:00 -1.1 C 89 % -2.68 C
2 21-02-2018 00:05:00 -1.1 C 90 % -2.53 C
3 21-02-2018 00:10:00 -1 C 91 % -2.28 C
4 21-02-2018 00:15:00 -0.9 C 91 % -2.18 C
5 21-02-2018 00:20:00 -0.8 C 91 % -2.08 C
6 21-02-2018 00:25:00 -0.6 C 91 % -1.88 C
7 21-02-2018 00:30:00 -0.4 C 91 % -1.69 C
8 21-02-2018 00:35:00 -0.3 C 91 % -1.59 C
9 21-02-2018 00:40:00 -0.2 C 91 % -1.49 C
10 21-02-2018 00:45:00 0.1 C 89 % -1.49 C
11 21-02-2018 00:50:00 0.2 C 87 % -1.7 C
12 21-02-2018 00:55:00 0.4 C 85 % -1.82 C
13 21-02-2018 01:00:00 0.7 C 84 % -1.69 C
14 21-02-2018 01:05:00 0.8 C 84 % -1.59 C
15 21-02-2018 01:10:00 0.9 C 81 % -1.98 C
16 21-02-2018 01:15:00 0.9 C 81 % -1.98 C
17 21-02-2018 01:20:00 1 C 80 % -2.05 C
18 21-02-2018 01:25:00 1.1 C 79 % -2.12 C
19 21-02-2018 01:30:00 1.1 C 80 % -1.96 C
20 21-02-2018 01:35:00 1.1 C 79 % -2.12 C
21 21-02-2018 01:40:00 1.1 C 80 % -1.96 C
22 21-02-2018 01:45:00 1.1 C 80 % -1.96 C
23 21-02-2018 01:50:00 1 C 80 % -2.05 C
24 21-02-2018 01:55:00 0.8 C 80 % -2.25 C
25 21-02-2018 02:00:00 0.7 C 80 % -2.34 C
Sensor: Nr:Datum:Temp:Feuchte:Taupunkt:
Aussen-T/F 26 21-02-2018 02:05:00 0.4 C 80 % -2.64 C
27 21-02-2018 02:10:00 0.2 C 80 % -2.83 C
28 21-02-2018 02:15:00 0.1 C 82 % -2.6 C
29 21-02-2018 02:20:00 -0.1 C 83 % -2.63 C
30 21-02-2018 02:25:00 -0.2 C 83 % -2.73 C
31 21-02-2018 02:30:00 -0.2 C 83 % -2.73 C
32 21-02-2018 02:35:00 -0.3 C 83 % -2.83 C
33 21-02-2018 02:40:00 -0.4 C 83 % -2.93 C
34 21-02-2018 02:45:00 -0.5 C 83 % -3.03 C
35 21-02-2018 02:50:00 -0.6 C 84 % -2.96 C
36 21-02-2018 02:55:00 -0.6 C 84 % -2.96 C
37 21-02-2018 03:00:00 -0.6 C 85 % -2.8 C
38 21-02-2018 03:05:00 -0.6 C 86 % -2.65 C
39 21-02-2018 03:10:00 -0.6 C 85 % -2.8 C
40 21-02-2018 03:15:00 -0.6 C 85 % -2.8 C
41 21-02-2018 03:20:00 -0.6 C 85 % -2.8 C
42 21-02-2018 03:25:00 -0.7 C 85 % -2.9 C
43 21-02-2018 03:30:00 -0.7 C 86 % -2.74 C
44 21-02-2018 03:35:00 -0.7 C 86 % -2.74 C
45 21-02-2018 03:40:00 -0.6 C 87 % -2.49 C
46 21-02-2018 03:45:00 -0.5 C 87 % -2.39 C
47 21-02-2018 03:50:00 -0.4 C 87 % -2.29 C
48 21-02-2018 03:55:00 -0.3 C 86 % -2.35 C
49 21-02-2018 04:00:00 -0.3 C 86 % -2.35 C
50 21-02-2018 04:05:00 -0.3 C 85 % -2.51 C
Sensor: Nr:Datum:Temp:Feuchte:Taupunkt:
Aussen-T/F 51 21-02-2018 04:10:00 -0.3 C 85 % -2.51 C
52 21-02-2018 04:15:00 -0.3 C 85 % -2.51 C
53 21-02-2018 04:20:00 -0.4 C 84 % -2.77 C
54 21-02-2018 04:25:00 -0.5 C 84 % -2.86 C
55 21-02-2018 04:30:00 -0.6 C 84 % -2.96 C
56 21-02-2018 04:35:00 -0.7 C 85 % -2.9 C
57 21-02-2018 04:40:00 -0.8 C 85 % -3 C
58 21-02-2018 04:45:00 -0.9 C 85 % -3.1 C
59 21-02-2018 04:50:00 -1 C 86 % -3.04 C
60 21-02-2018 04:55:00 -1.1 C 86 % -3.14 C
61 21-02-2018 05:00:00 -1.2 C 86 % -3.24 C
62 21-02-2018 05:05:00 -1.2 C 86 % -3.24 C
63 21-02-2018 05:10:00 -1.3 C 87 % -3.18 C
64 21-02-2018 05:15:00 -1.3 C 87 % -3.18 C
65 21-02-2018 05:20:00 -1.4 C 87 % -3.28 C
66 21-02-2018 05:25:00 -1.4 C 88 % -3.13 C
67 21-02-2018 05:30:00 -1.4 C 88 % -3.13 C
68 21-02-2018 05:35:00 -1.4 C 88 % -3.13 C
69 21-02-2018 05:40:00 -1.4 C 88 % -3.13 C
70 21-02-2018 05:45:00 -1.5 C 88 % -3.22 C
71 21-02-2018 05:50:00 -1.6 C 88 % -3.32 C
72 21-02-2018 05:55:00 -1.6 C 88 % -3.32 C
73 21-02-2018 06:00:00 -1.6 C 88 % -3.32 C
74 21-02-2018 06:05:00 -1.7 C 89 % -3.27 C
75 21-02-2018 06:10:00 -1.7 C 89 % -3.27 C
Sensor: Nr:Datum:Temp:Feuchte:Taupunkt:
Aussen-T/F 76 21-02-2018 06:15:00 -1.7 C 89 % -3.27 C
77 21-02-2018 06:20:00 -1.7 C 89 % -3.27 C
78 21-02-2018 06:25:00 -1.7 C 89 % -3.27 C
79 21-02-2018 06:30:00 -1.8 C 89 % -3.37 C
80 21-02-2018 06:35:00 -1.7 C 89 % -3.27 C
81 21-02-2018 06:40:00 -1.7 C 90 % -3.12 C
82 21-02-2018 06:45:00 -1.7 C 90 % -3.12 C
83 21-02-2018 06:50:00 -1.7 C 90 % -3.12 C
84 21-02-2018 06:55:00 -1.7 C 90 % -3.12 C
85 21-02-2018 07:00:00 -1.7 C 90 % -3.12 C
86 21-02-2018 07:05:00 -1.6 C 90 % -3.02 C
87 21-02-2018 07:10:00 -1.6 C 90 % -3.02 C
88 21-02-2018 07:15:00 -1.7 C 90 % -3.12 C
89 21-02-2018 07:20:00 -1.7 C 90 % -3.12 C
90 21-02-2018 07:25:00 -1.7 C 90 % -3.12 C
91 21-02-2018 07:30:00 -1.7 C 90 % -3.12 C
92 21-02-2018 07:35:00 -1.7 C 90 % -3.12 C
93 21-02-2018 07:40:00 -1.7 C 90 % -3.12 C
94 21-02-2018 07:45:00 -1.7 C 90 % -3.12 C
95 21-02-2018 07:50:00 -1.7 C 90 % -3.12 C
96 21-02-2018 07:55:00 -1.7 C 90 % -3.12 C
97 21-02-2018 08:00:00 -1.8 C 90 % -3.22 C
98 21-02-2018 08:05:00 -1.8 C 90 % -3.22 C
99 21-02-2018 08:10:00 -1.8 C 90 % -3.22 C
100 21-02-2018 08:15:00 -1.8 C 91 % -3.07 C
Sensor: Nr:Datum:Temp:Feuchte:Taupunkt:
Aussen-T/F 101 21-02-2018 08:20:00 -1.8 C 91 % -3.07 C
102 21-02-2018 08:25:00 -1.7 C 91 % -2.97 C
103 21-02-2018 08:30:00 -1.7 C 91 % -2.97 C
104 21-02-2018 08:35:00 -1.6 C 91 % -2.87 C
105 21-02-2018 08:40:00 -1.5 C 91 % -2.77 C
106 21-02-2018 08:45:00 -1.4 C 91 % -2.68 C
107 21-02-2018 08:50:00 -1.3 C 90 % -2.73 C
108 21-02-2018 08:55:00 -1.2 C 89 % -2.78 C
109 21-02-2018 09:00:00 -1.1 C 89 % -2.68 C
110 21-02-2018 09:05:00 -1.1 C 89 % -2.68 C
111 21-02-2018 09:10:00 -1.1 C 89 % -2.68 C
112 21-02-2018 09:15:00 -1.1 C 89 % -2.68 C
113 21-02-2018 09:20:00 -1.1 C 89 % -2.68 C
114 21-02-2018 09:25:00 -1.1 C 89 % -2.68 C
115 21-02-2018 09:30:00 -0.9 C 89 % -2.48 C
116 21-02-2018 09:35:00 -0.9 C 89 % -2.48 C
117 21-02-2018 09:40:00 -0.8 C 89 % -2.38 C
118 21-02-2018 09:45:00 -0.8 C 89 % -2.38 C
119 21-02-2018 09:50:00 -0.8 C 89 % -2.38 C
120 21-02-2018 09:55:00 -0.7 C 89 % -2.28 C
121 21-02-2018 10:00:00 -0.7 C 89 % -2.28 C
122 21-02-2018 10:05:00 -0.7 C 89 % -2.28 C
123 21-02-2018 10:10:00 -0.6 C 89 % -2.18 C
124 21-02-2018 10:15:00 -0.5 C 89 % -2.09 C
125 21-02-2018 10:20:00 -0.4 C 89 % -1.99 C
Sensor: Nr:Datum:Temp:Feuchte:Taupunkt:
Aussen-T/F 126 21-02-2018 10:25:00 -0.4 C 89 % -1.99 C
127 21-02-2018 10:30:00 -0.3 C 89 % -1.89 C
128 21-02-2018 10:35:00 -0.2 C 89 % -1.79 C
129 21-02-2018 10:40:00 -0.1 C 89 % -1.69 C
130 21-02-2018 10:45:00 0 C 89 % -1.59 C
131 21-02-2018 10:50:00 0.1 C 89 % -1.49 C
132 21-02-2018 10:55:00 0.3 C 89 % -1.29 C
133 21-02-2018 11:00:00 0.4 C 88 % -1.35 C
134 21-02-2018 11:05:00 0.6 C 88 % -1.15 C
135 21-02-2018 11:10:00 0.8 C 88 % -0.96 C
136 21-02-2018 11:15:00 1.1 C 87 % -0.82 C
137 21-02-2018 11:20:00 1.3 C 85 % -0.94 C
138 21-02-2018 11:25:00 1.6 C 84 % -0.8 C
139 21-02-2018 11:30:00 1.8 C 84 % -0.61 C
140 21-02-2018 11:35:00 1.9 C 83 % -0.67 C
141 21-02-2018 11:40:00 2 C 82 % -0.74 C
142 21-02-2018 11:45:00 2.1 C 79 % -1.15 C
143 21-02-2018 11:50:00 2.2 C 79 % -1.05 C
144 21-02-2018 11:55:00 2.3 C 79 % -0.96 C
145 21-02-2018 12:00:00 2.3 C 79 % -0.96 C
146 21-02-2018 12:05:00 2.4 C 77 % -1.21 C
147 21-02-2018 12:10:00 2.6 C 76 % -1.19 C
148 21-02-2018 12:15:00 2.8 C 73 % -1.55 C
149 21-02-2018 12:20:00 3 C 72 % -1.54 C
150 21-02-2018 12:25:00 3.1 C 69 % -2.02 C
Sensor: Nr:Datum:Temp:Feuchte:Taupunkt:
Aussen-T/F 151 21-02-2018 12:30:00 3.3 C 67 % -2.23 C
152 21-02-2018 12:35:00 3.6 C 66 % -2.14 C
153 21-02-2018 12:40:00 3.8 C 64 % -2.37 C
154 21-02-2018 12:45:00 4 C 63 % -2.39 C
155 21-02-2018 12:50:00 4.2 C 62 % -2.42 C
156 21-02-2018 12:55:00 4.2 C 65 % -1.78 C
157 21-02-2018 13:00:00 4.2 C 64 % -1.99 C
158 21-02-2018 13:05:00 4.2 C 61 % -2.64 C
159 21-02-2018 13:10:00 4.3 C 58 % -3.22 C
160 21-02-2018 13:15:00 4.6 C 58 % -2.94 C
161 21-02-2018 13:20:00 4.8 C 56 % -3.22 C
162 21-02-2018 13:25:00 5 C 59 % -2.33 C
163 21-02-2018 13:30:00 5.2 C 57 % -2.61 C
164 21-02-2018 13:35:00 5.3 C 55 % -2.99 C
165 21-02-2018 13:40:00 5.4 C 58 % -2.18 C
166 21-02-2018 13:45:00 5.5 C 55 % -2.81 C
167 21-02-2018 13:50:00 5.6 C 53 % -3.21 C
168 21-02-2018 13:55:00 5.7 C 52 % -3.37 C
169 21-02-2018 14:00:00 5.7 C 54 % -2.87 C
170 21-02-2018 14:05:00 5.8 C 53 % -3.02 C
171 21-02-2018 14:10:00 5.7 C 52 % -3.37 C
172 21-02-2018 14:15:00 5.7 C 52 % -3.37 C
173 21-02-2018 14:20:00 5.7 C 53 % -3.12 C
174 21-02-2018 14:25:00 5.6 C 53 % -3.21 C
175 21-02-2018 14:30:00 5.6 C 53 % -3.21 C
Sensor: Nr:Datum:Temp:Feuchte:Taupunkt:
Aussen-T/F 176 21-02-2018 14:35:00 5.6 C 53 % -3.21 C
177 21-02-2018 14:40:00 5.6 C 49 % -4.25 C
178 21-02-2018 14:45:00 5.7 C 53 % -3.12 C
179 21-02-2018 14:50:00 5.8 C 52 % -3.28 C
180 21-02-2018 14:55:00 5.8 C 51 % -3.54 C
181 21-02-2018 15:00:00 5.9 C 50 % -3.71 C
182 21-02-2018 15:05:00 5.9 C 51 % -3.44 C
183 21-02-2018 15:10:00 6 C 50 % -3.62 C
184 21-02-2018 15:15:00 6.1 C 49 % -3.79 C
185 21-02-2018 15:20:00 6.1 C 50 % -3.52 C
186 21-02-2018 15:25:00 6.1 C 49 % -3.79 C
187 21-02-2018 15:30:00 6.2 C 50 % -3.43 C
188 21-02-2018 15:35:00 6.2 C 49 % -3.7 C
189 21-02-2018 15:40:00 6.2 C 50 % -3.43 C
190 21-02-2018 15:45:00 6.3 C 50 % -3.34 C
191 21-02-2018 15:50:00 6.3 C 50 % -3.34 C
192 21-02-2018 15:55:00 6.3 C 49 % -3.61 C
193 21-02-2018 16:00:00 6.3 C 50 % -3.34 C
194 21-02-2018 16:05:00 6.3 C 50 % -3.34 C
195 21-02-2018 16:10:00 6.3 C 50 % -3.34 C
196 21-02-2018 16:15:00 6.3 C 50 % -3.34 C
197 21-02-2018 16:20:00 6.3 C 49 % -3.61 C
198 21-02-2018 16:25:00 6.3 C 49 % -3.61 C
199 21-02-2018 16:30:00 6.3 C 49 % -3.61 C
200 21-02-2018 16:35:00 6.3 C 49 % -3.61 C
Sensor: Nr:Datum:Temp:Feuchte:Taupunkt:
Aussen-T/F 201 21-02-2018 16:40:00 6.3 C 49 % -3.61 C
202 21-02-2018 16:45:00 6.3 C 50 % -3.34 C
203 21-02-2018 16:50:00 6.3 C 51 % -3.08 C
204 21-02-2018 16:55:00 6.2 C 51 % -3.17 C
205 21-02-2018 17:00:00 6.2 C 51 % -3.17 C
206 21-02-2018 17:05:00 6.2 C 53 % -2.65 C
207 21-02-2018 17:10:00 6.1 C 51 % -3.26 C
208 21-02-2018 17:15:00 6.2 C 51 % -3.17 C
209 21-02-2018 17:20:00 6.1 C 58 % -1.53 C
210 21-02-2018 17:25:00 5.8 C 60 % -1.35 C
211 21-02-2018 17:30:00 5.4 C 60 % -1.73 C
212 21-02-2018 17:35:00 5.1 C 64 % -1.13 C
213 21-02-2018 17:40:00 4.7 C 66 % -1.1 C
214 21-02-2018 17:45:00 4.4 C 67 % -1.18 C
215 21-02-2018 17:50:00 4.1 C 66 % -1.67 C
216 21-02-2018 17:55:00 3.9 C 68 % -1.45 C
217 21-02-2018 18:00:00 3.6 C 68 % -1.74 C
218 21-02-2018 18:05:00 3.4 C 68 % -1.93 C
219 21-02-2018 18:10:00 3.2 C 68 % -2.12 C
220 21-02-2018 18:15:00 3.1 C 70 % -1.83 C
221 21-02-2018 18:20:00 2.9 C 71 % -1.83 C
222 21-02-2018 18:25:00 2.8 C 71 % -1.92 C
223 21-02-2018 18:30:00 2.6 C 73 % -1.74 C
224 21-02-2018 18:35:00 2.4 C 73 % -1.93 C
225 21-02-2018 18:40:00 2.3 C 74 % -1.85 C
Sensor: Nr:Datum:Temp:Feuchte:Taupunkt:
Aussen-T/F 226 21-02-2018 18:45:00 2.2 C 75 % -1.76 C
227 21-02-2018 18:50:00 2.1 C 75 % -1.86 C
228 21-02-2018 18:55:00 1.9 C 76 % -1.87 C
229 21-02-2018 19:00:00 1.8 C 76 % -1.97 C
230 21-02-2018 19:05:00 1.8 C 77 % -1.79 C
231 21-02-2018 19:10:00 1.7 C 77 % -1.89 C
232 21-02-2018 19:15:00 1.6 C 77 % -1.99 C
233 21-02-2018 19:20:00 1.6 C 77 % -1.99 C
234 21-02-2018 19:25:00 1.6 C 77 % -1.99 C
235 21-02-2018 19:30:00 1.5 C 77 % -2.08 C
236 21-02-2018 19:35:00 1.4 C 78 % -2.01 C
237 21-02-2018 19:40:00 1.4 C 78 % -2.01 C
238 21-02-2018 19:45:00 1.3 C 78 % -2.1 C
239 21-02-2018 19:50:00 1.3 C 78 % -2.1 C
240 21-02-2018 19:55:00 1.2 C 78 % -2.2 C
241 21-02-2018 20:00:00 1.2 C 78 % -2.2 C
242 21-02-2018 20:05:00 1.1 C 79 % -2.12 C
243 21-02-2018 20:10:00 1 C 79 % -2.22 C
244 21-02-2018 20:15:00 0.9 C 79 % -2.32 C
245 21-02-2018 20:20:00 0.8 C 79 % -2.42 C
246 21-02-2018 20:25:00 0.7 C 80 % -2.34 C
247 21-02-2018 20:30:00 0.8 C 80 % -2.25 C
248 21-02-2018 20:35:00 0.7 C 80 % -2.34 C
249 21-02-2018 20:40:00 0.6 C 80 % -2.44 C
250 21-02-2018 20:45:00 0.6 C 80 % -2.44 C
Sensor: Nr:Datum:Temp:Feuchte:Taupunkt:
Aussen-T/F 251 21-02-2018 20:50:00 0.5 C 81 % -2.37 C
252 21-02-2018 20:55:00 0.4 C 81 % -2.47 C
253 21-02-2018 21:00:00 0.4 C 81 % -2.47 C
254 21-02-2018 21:05:00 0.3 C 81 % -2.57 C
255 21-02-2018 21:10:00 0.2 C 82 % -2.5 C
256 21-02-2018 21:15:00 0.2 C 82 % -2.5 C
257 21-02-2018 21:20:00 0.2 C 82 % -2.5 C
258 21-02-2018 21:25:00 0.2 C 82 % -2.5 C
259 21-02-2018 21:30:00 0.1 C 83 % -2.44 C
260 21-02-2018 21:35:00 0 C 82 % -2.7 C
261 21-02-2018 21:40:00 0 C 82 % -2.7 C
262 21-02-2018 21:45:00 -0.1 C 83 % -2.63 C
263 21-02-2018 21:50:00 -0.1 C 83 % -2.63 C
264 21-02-2018 21:55:00 -0.1 C 82 % -2.8 C
265 21-02-2018 22:00:00 0 C 82 % -2.7 C
266 21-02-2018 22:05:00 0 C 81 % -2.86 C
267 21-02-2018 22:10:00 0 C 81 % -2.86 C
268 21-02-2018 22:15:00 -0.2 C 82 % -2.89 C
269 21-02-2018 22:20:00 -0.2 C 82 % -2.89 C
270 21-02-2018 22:25:00 -0.3 C 81 % -3.16 C
271 21-02-2018 22:30:00 -0.3 C 81 % -3.16 C
272 21-02-2018 22:35:00 -0.4 C 81 % -3.25 C
273 21-02-2018 22:40:00 -0.5 C 81 % -3.35 C
274 21-02-2018 22:45:00 -0.6 C 80 % -3.62 C
275 21-02-2018 22:50:00 -0.6 C 80 % -3.62 C
Sensor: Nr:Datum:Temp:Feuchte:Taupunkt:
Aussen-T/F 276 21-02-2018 22:55:00 -0.6 C 81 % -3.45 C
277 21-02-2018 23:00:00 -0.5 C 79 % -3.69 C
278 21-02-2018 23:05:00 -0.4 C 79 % -3.59 C
279 21-02-2018 23:10:00 -0.4 C 79 % -3.59 C
280 21-02-2018 23:15:00 -0.4 C 80 % -3.42 C
281 21-02-2018 23:20:00 -0.4 C 79 % -3.59 C
282 21-02-2018 23:25:00 -0.5 C 79 % -3.69 C
283 21-02-2018 23:30:00 -0.6 C 79 % -3.78 C
284 21-02-2018 23:35:00 -0.6 C 79 % -3.78 C
285 21-02-2018 23:40:00 -0.6 C 79 % -3.78 C
286 21-02-2018 23:45:00 -0.6 C 79 % -3.78 C
287 21-02-2018 23:50:00 -0.5 C 78 % -3.86 C
288 21-02-2018 23:55:00 -0.5 C 79 % -3.69 C

Legende:
   Min
   Max


Maximal/Minimal-Werte vom 21.02.2018 - 21.02.2018

Sensor Min Max Avg
Temp
(Aussen-T/F)
-1.8 °C
21-02-2018  06:30:00
6.3 °C
21-02-2018  15:45:00
1.21 °C
Feuchte
(Aussen-T/F)
49 %
21-02-2018  14:40:00
91 %
21-02-2018  00:10:00
77.15 %
Taupunkt
(Aussen-T/F)
-4.25 C
21-02-2018  14:40:00
-0.61 C
21-02-2018  11:30:00
-2.59 C

Die Daten stammen von einer Davis Vantage Pro 2 Wetter-Station und werden unter Linux mit der Software wview2wettercgi und aufbereitet. Alle Angaben erfolgen ohne Gewähr für ihre Vollständigkeit oder Richtigkeit.
Kontakt: Rainer Krienke krienke@uni-koblenz.de . Meine Webseiten an der Uni Koblenz oder privat.
Version: $Revision: 0.78 $